DLH266 EDDP-EDDF
Flight info
| Callsign | DLH266 |
|---|---|
| Flight time | 0h 34m |
| Altitude | 20000 |
| Route | ORTAG5N ORTAG T177 ODIPI T157 KOKEB/N0431F190 T157 KERAX KERAX5A |
| Aircraft | B78X/H-SDE1E2E3FGHIJ2J3J4J5M1RWXY/LB1D1 |
Departure
| Time | 2026-05-06 14:11 |
|---|---|
| Airport | Leipzig/Halle Airport (EDDP) |
Arrival
| Time | 2026-05-06 14:45 |
|---|---|
| Airport | Frankfurt Main Airport (EDDF) |
| Time | Latitude | Longitude | Altitude | Speed | Heading |
|---|---|---|---|---|---|
| 2026-05-06 13:54 | 51.41007 | 12.24981 | 477 ft | 0 kts | 265° |
| 2026-05-06 14:04 | 51.41008 | 12.25002 | 471 ft | 4 kts | 265° |
| 2026-05-06 14:04 | 51.41010 | 12.25045 | 472 ft | 4 kts | 265° |
| 2026-05-06 14:04 | 51.41012 | 12.25084 | 472 ft | 3 kts | 266° |
| 2026-05-06 14:04 | 51.41012 | 12.25122 | 471 ft | 4 kts | 292° |
| 2026-05-06 14:05 | 51.41004 | 12.25147 | 473 ft | 4 kts | 335° |
| 2026-05-06 14:05 | 51.40982 | 12.25156 | 471 ft | 4 kts | 0° |
| 2026-05-06 14:05 | 51.40961 | 12.25156 | 470 ft | 1 kts | 355° |
| 2026-05-06 14:05 | 51.40956 | 12.25157 | 470 ft | 0 kts | 355° |
| 2026-05-06 14:07 | 51.40957 | 12.25156 | 478 ft | 1 kts | 356° |
| 2026-05-06 14:07 | 51.40981 | 12.25154 | 477 ft | 9 kts | 356° |
| 2026-05-06 14:08 | 51.41072 | 12.25144 | 474 ft | 13 kts | 358° |
| 2026-05-06 14:08 | 51.41118 | 12.25187 | 475 ft | 10 kts | 58° |
| 2026-05-06 14:08 | 51.41127 | 12.25293 | 482 ft | 10 kts | 85° |
| 2026-05-06 14:08 | 51.41133 | 12.25402 | 475 ft | 10 kts | 84° |
| 2026-05-06 14:09 | 51.41140 | 12.25523 | 482 ft | 12 kts | 88° |
| 2026-05-06 14:09 | 51.41179 | 12.25625 | 474 ft | 10 kts | 12° |
| 2026-05-06 14:09 | 51.41244 | 12.25619 | 479 ft | 10 kts | 356° |
| 2026-05-06 14:09 | 51.41312 | 12.25606 | 476 ft | 11 kts | 346° |
| 2026-05-06 14:10 | 51.41388 | 12.25526 | 473 ft | 16 kts | 304° |
| 2026-05-06 14:10 | 51.41390 | 12.25354 | 470 ft | 20 kts | 264° |
| 2026-05-06 14:10 | 51.41361 | 12.24712 | 471 ft | 107 kts | 265° |
| 2026-05-06 14:10 | 51.41266 | 12.23034 | 673 ft | 181 kts | 260° |
| 2026-05-06 14:11 | 51.41126 | 12.20857 | 1618 ft | 201 kts | 265° |
| 2026-05-06 14:11 | 51.41048 | 12.18549 | 2478 ft | 225 kts | 268° |
| 2026-05-06 14:11 | 51.41007 | 12.15962 | 3381 ft | 236 kts | 266° |
| 2026-05-06 14:11 | 51.40887 | 12.13308 | 4540 ft | 245 kts | 264° |
| 2026-05-06 14:12 | 51.40732 | 12.10525 | 5815 ft | 255 kts | 263° |
| 2026-05-06 14:12 | 51.40579 | 12.07620 | 6806 ft | 266 kts | 263° |
| 2026-05-06 14:12 | 51.40431 | 12.04645 | 6971 ft | 271 kts | 264° |
| 2026-05-06 14:12 | 51.40287 | 12.01725 | 6951 ft | 259 kts | 263° |
| 2026-05-06 14:13 | 51.40138 | 11.98823 | 7008 ft | 265 kts | 263° |
| 2026-05-06 14:13 | 51.39984 | 11.95864 | 7583 ft | 269 kts | 263° |
| 2026-05-06 14:13 | 51.39831 | 11.92866 | 8934 ft | 275 kts | 263° |
| 2026-05-06 14:13 | 51.39670 | 11.89709 | 9982 ft | 294 kts | 263° |
| 2026-05-06 14:14 | 51.39510 | 11.86424 | 11247 ft | 300 kts | 263° |
| 2026-05-06 14:14 | 51.39339 | 11.82991 | 12187 ft | 319 kts | 263° |
| 2026-05-06 14:14 | 51.39159 | 11.79356 | 13211 ft | 332 kts | 264° |
| 2026-05-06 14:14 | 51.39423 | 11.75640 | 14278 ft | 342 kts | 279° |
| 2026-05-06 14:15 | 51.39453 | 11.71862 | 15337 ft | 342 kts | 256° |
| 2026-05-06 14:15 | 51.38635 | 11.68287 | 16406 ft | 345 kts | 243° |
| 2026-05-06 14:15 | 51.37494 | 11.64877 | 17472 ft | 350 kts | 238° |
| 2026-05-06 14:15 | 51.36202 | 11.61530 | 18461 ft | 355 kts | 236° |
| 2026-05-06 14:16 | 51.34853 | 11.58202 | 19379 ft | 360 kts | 236° |
| 2026-05-06 14:16 | 51.33461 | 11.54837 | 19883 ft | 363 kts | 236° |
| 2026-05-06 14:16 | 51.32054 | 11.51470 | 19966 ft | 364 kts | 235° |
| 2026-05-06 14:16 | 51.30650 | 11.48125 | 19962 ft | 363 kts | 235° |
| 2026-05-06 14:17 | 51.29243 | 11.44783 | 19961 ft | 361 kts | 235° |
| 2026-05-06 14:17 | 51.27831 | 11.41435 | 19954 ft | 362 kts | 235° |
| 2026-05-06 14:17 | 51.26425 | 11.38106 | 19963 ft | 364 kts | 235° |
| 2026-05-06 14:17 | 51.25010 | 11.34763 | 19962 ft | 363 kts | 235° |
| 2026-05-06 14:18 | 51.23599 | 11.31435 | 19968 ft | 364 kts | 235° |
| 2026-05-06 14:18 | 51.22154 | 11.28029 | 19975 ft | 377 kts | 235° |
| 2026-05-06 14:18 | 51.20692 | 11.24586 | 19978 ft | 374 kts | 235° |
| 2026-05-06 14:18 | 51.19218 | 11.21116 | 19967 ft | 376 kts | 235° |
| 2026-05-06 14:19 | 51.17750 | 11.17665 | 19967 ft | 379 kts | 235° |
| 2026-05-06 14:19 | 51.16277 | 11.14204 | 19970 ft | 375 kts | 235° |
| 2026-05-06 14:19 | 51.14803 | 11.10745 | 19971 ft | 377 kts | 235° |
| 2026-05-06 14:19 | 51.13331 | 11.07298 | 19975 ft | 378 kts | 235° |
| 2026-05-06 14:20 | 51.11848 | 11.03841 | 19977 ft | 377 kts | 235° |
| 2026-05-06 14:20 | 51.10364 | 11.00396 | 19977 ft | 378 kts | 235° |
| 2026-05-06 14:20 | 51.08880 | 10.96951 | 19980 ft | 378 kts | 235° |
| 2026-05-06 14:20 | 51.07395 | 10.93502 | 19980 ft | 377 kts | 235° |
| 2026-05-06 14:21 | 51.05911 | 10.90063 | 19983 ft | 377 kts | 235° |
| 2026-05-06 14:21 | 51.04423 | 10.86619 | 19978 ft | 378 kts | 235° |
| 2026-05-06 14:21 | 51.02936 | 10.83186 | 19981 ft | 377 kts | 235° |
| 2026-05-06 14:21 | 51.01447 | 10.79748 | 19983 ft | 378 kts | 235° |
| 2026-05-06 14:22 | 50.99957 | 10.76312 | 19979 ft | 378 kts | 235° |
| 2026-05-06 14:22 | 50.98466 | 10.72881 | 19979 ft | 378 kts | 235° |
| 2026-05-06 14:22 | 50.96992 | 10.69492 | 19977 ft | 378 kts | 235° |
| 2026-05-06 14:22 | 50.95483 | 10.66029 | 19977 ft | 378 kts | 235° |
| 2026-05-06 14:23 | 50.94005 | 10.62639 | 19976 ft | 378 kts | 234° |
| 2026-05-06 14:23 | 50.92510 | 10.59216 | 19972 ft | 378 kts | 235° |
| 2026-05-06 14:23 | 50.91011 | 10.55788 | 19971 ft | 378 kts | 234° |
| 2026-05-06 14:23 | 50.89514 | 10.52368 | 19969 ft | 378 kts | 234° |
| 2026-05-06 14:24 | 50.88012 | 10.48943 | 19966 ft | 378 kts | 234° |
| 2026-05-06 14:24 | 50.86511 | 10.45525 | 19966 ft | 379 kts | 234° |
| 2026-05-06 14:24 | 50.84987 | 10.42059 | 19963 ft | 379 kts | 234° |
| 2026-05-06 14:24 | 50.83485 | 10.38645 | 19962 ft | 379 kts | 234° |
| 2026-05-06 14:25 | 50.81975 | 10.35219 | 19957 ft | 379 kts | 234° |
| 2026-05-06 14:25 | 50.80482 | 10.31834 | 19740 ft | 375 kts | 234° |
| 2026-05-06 14:25 | 50.78986 | 10.28450 | 19393 ft | 374 kts | 234° |
| 2026-05-06 14:25 | 50.77499 | 10.25088 | 19051 ft | 373 kts | 234° |
| 2026-05-06 14:26 | 50.76013 | 10.21735 | 18723 ft | 372 kts | 234° |
| 2026-05-06 14:26 | 50.74602 | 10.18554 | 18437 ft | 371 kts | 234° |
| 2026-05-06 14:26 | 50.73099 | 10.15170 | 18136 ft | 370 kts | 234° |
| 2026-05-06 14:26 | 50.71624 | 10.11853 | 17822 ft | 369 kts | 234° |
| 2026-05-06 14:27 | 50.70170 | 10.08589 | 17500 ft | 368 kts | 234° |
| 2026-05-06 14:27 | 50.68706 | 10.05308 | 17187 ft | 366 kts | 234° |
| 2026-05-06 14:27 | 50.67238 | 10.02018 | 16905 ft | 365 kts | 234° |
| 2026-05-06 14:27 | 50.65761 | 9.98711 | 16619 ft | 364 kts | 234° |
| 2026-05-06 14:28 | 50.64325 | 9.95504 | 16335 ft | 362 kts | 234° |
| 2026-05-06 14:28 | 50.62875 | 9.92269 | 16061 ft | 361 kts | 234° |
| 2026-05-06 14:28 | 50.61427 | 9.89040 | 15809 ft | 360 kts | 234° |
| 2026-05-06 14:28 | 50.59985 | 9.85829 | 15413 ft | 360 kts | 234° |
| 2026-05-06 14:29 | 50.58543 | 9.82622 | 14912 ft | 356 kts | 234° |
| 2026-05-06 14:29 | 50.57121 | 9.79465 | 14426 ft | 354 kts | 234° |
| 2026-05-06 14:29 | 50.55698 | 9.76308 | 13931 ft | 352 kts | 234° |
| 2026-05-06 14:29 | 50.54289 | 9.73186 | 13448 ft | 350 kts | 234° |
| 2026-05-06 14:30 | 50.52882 | 9.70071 | 12920 ft | 347 kts | 234° |
| 2026-05-06 14:30 | 50.51495 | 9.67006 | 12388 ft | 344 kts | 234° |
| 2026-05-06 14:30 | 50.50112 | 9.63953 | 11873 ft | 341 kts | 234° |
| 2026-05-06 14:30 | 50.48743 | 9.60933 | 11371 ft | 338 kts | 234° |
| 2026-05-06 14:31 | 50.47498 | 9.57828 | 10984 ft | 335 kts | 246° |
| 2026-05-06 14:31 | 50.46770 | 9.54343 | 10960 ft | 339 kts | 252° |
| 2026-05-06 14:31 | 50.46095 | 9.50810 | 10968 ft | 338 kts | 252° |
| 2026-05-06 14:31 | 50.45441 | 9.47267 | 10965 ft | 339 kts | 252° |
| 2026-05-06 14:32 | 50.44778 | 9.43724 | 10963 ft | 339 kts | 252° |
| 2026-05-06 14:32 | 50.44103 | 9.40190 | 10967 ft | 338 kts | 252° |
| 2026-05-06 14:32 | 50.43427 | 9.36645 | 10974 ft | 339 kts | 252° |
| 2026-05-06 14:32 | 50.42756 | 9.33106 | 10969 ft | 339 kts | 252° |
| 2026-05-06 14:33 | 50.42083 | 9.29567 | 10969 ft | 339 kts | 252° |
| 2026-05-06 14:33 | 50.41406 | 9.26023 | 10972 ft | 339 kts | 252° |
| 2026-05-06 14:33 | 50.40618 | 9.22558 | 10843 ft | 334 kts | 248° |
| 2026-05-06 14:33 | 50.39829 | 9.19144 | 10340 ft | 333 kts | 250° |
| 2026-05-06 14:34 | 50.39070 | 9.15729 | 9825 ft | 331 kts | 249° |
| 2026-05-06 14:34 | 50.38289 | 9.12344 | 9303 ft | 329 kts | 249° |
| 2026-05-06 14:34 | 50.37498 | 9.08984 | 8767 ft | 327 kts | 249° |
| 2026-05-06 14:34 | 50.36711 | 9.05661 | 8261 ft | 324 kts | 246° |
| 2026-05-06 14:35 | 50.35410 | 9.02854 | 7787 ft | 314 kts | 220° |
| 2026-05-06 14:35 | 50.33549 | 9.01403 | 7172 ft | 294 kts | 191° |
| 2026-05-06 14:35 | 50.31576 | 9.01360 | 6965 ft | 275 kts | 177° |
| 2026-05-06 14:35 | 50.29730 | 9.01712 | 6959 ft | 258 kts | 174° |
| 2026-05-06 14:36 | 50.27999 | 9.02122 | 6963 ft | 249 kts | 174° |
| 2026-05-06 14:36 | 50.26296 | 9.02537 | 6776 ft | 251 kts | 173° |
| 2026-05-06 14:36 | 50.24598 | 9.02951 | 6315 ft | 240 kts | 173° |
| 2026-05-06 14:36 | 50.22979 | 9.03349 | 5737 ft | 233 kts | 173° |
| 2026-05-06 14:37 | 50.21392 | 9.03629 | 5178 ft | 228 kts | 187° |
| 2026-05-06 14:37 | 50.20000 | 9.02626 | 4997 ft | 226 kts | 218° |
| 2026-05-06 14:37 | 50.18866 | 9.01102 | 4951 ft | 222 kts | 223° |
| 2026-05-06 14:37 | 50.17777 | 8.99512 | 5001 ft | 204 kts | 224° |
| 2026-05-06 14:38 | 50.16771 | 8.98033 | 5017 ft | 204 kts | 223° |
| 2026-05-06 14:38 | 50.15780 | 8.96537 | 5017 ft | 200 kts | 227° |
| 2026-05-06 14:38 | 50.14892 | 8.94901 | 5017 ft | 193 kts | 230° |
| 2026-05-06 14:38 | 50.14149 | 8.93161 | 5007 ft | 189 kts | 242° |
| 2026-05-06 14:39 | 50.13637 | 8.91243 | 5015 ft | 193 kts | 247° |
| 2026-05-06 14:39 | 50.13164 | 8.89288 | 5011 ft | 192 kts | 248° |
| 2026-05-06 14:39 | 50.12698 | 8.87336 | 5019 ft | 191 kts | 248° |
| 2026-05-06 14:39 | 50.12227 | 8.85371 | 4941 ft | 195 kts | 248° |
| 2026-05-06 14:40 | 50.11764 | 8.83429 | 4679 ft | 185 kts | 248° |
| 2026-05-06 14:40 | 50.11330 | 8.81611 | 4419 ft | 173 kts | 248° |
| 2026-05-06 14:40 | 50.10923 | 8.79901 | 4172 ft | 165 kts | 248° |
| 2026-05-06 14:40 | 50.10516 | 8.78207 | 3939 ft | 168 kts | 248° |
| 2026-05-06 14:41 | 50.10111 | 8.76521 | 3709 ft | 172 kts | 249° |
| 2026-05-06 14:41 | 50.09712 | 8.74837 | 3462 ft | 166 kts | 249° |
| 2026-05-06 14:41 | 50.09307 | 8.73153 | 3235 ft | 165 kts | 249° |
| 2026-05-06 14:41 | 50.08901 | 8.71464 | 2982 ft | 167 kts | 250° |
| 2026-05-06 14:42 | 50.08501 | 8.69794 | 2770 ft | 160 kts | 250° |
| 2026-05-06 14:42 | 50.08136 | 8.68280 | 2538 ft | 144 kts | 250° |
| 2026-05-06 14:42 | 50.07872 | 8.67177 | 2381 ft | 144 kts | 250° |
| 2026-05-06 14:42 | 50.07540 | 8.65765 | 2188 ft | 142 kts | 250° |
| 2026-05-06 14:43 | 50.07210 | 8.64374 | 1988 ft | 138 kts | 250° |
| 2026-05-06 14:43 | 50.06871 | 8.62963 | 1790 ft | 136 kts | 250° |
| 2026-05-06 14:43 | 50.06529 | 8.61544 | 1575 ft | 139 kts | 252° |
| 2026-05-06 14:43 | 50.06210 | 8.60146 | 1317 ft | 138 kts | 251° |
| 2026-05-06 14:44 | 50.05880 | 8.58753 | 1008 ft | 139 kts | 249° |
| 2026-05-06 14:44 | 50.05535 | 8.57364 | 776 ft | 136 kts | 247° |
| 2026-05-06 14:44 | 50.05205 | 8.56003 | 659 ft | 133 kts | 249° |
| 2026-05-06 14:45 | 50.04553 | 8.53250 | 390 ft | 135 kts | 250° |
| 2026-05-06 14:45 | 50.04279 | 8.52085 | 355 ft | 91 kts | 250° |
| 2026-05-06 14:45 | 50.04119 | 8.51430 | 357 ft | 39 kts | 249° |
| 2026-05-06 14:45 | 50.04060 | 8.51200 | 358 ft | 9 kts | 243° |
| 2026-05-06 14:46 | 50.04033 | 8.51122 | 356 ft | 12 kts | 240° |
| 2026-05-06 14:46 | 50.03963 | 8.50988 | 358 ft | 21 kts | 221° |
| 2026-05-06 14:46 | 50.03827 | 8.50835 | 359 ft | 18 kts | 194° |
| 2026-05-06 14:46 | 50.03775 | 8.50867 | 360 ft | 6 kts | 119° |
| 2026-05-06 14:47 | 50.03786 | 8.50969 | 358 ft | 13 kts | 66° |
| 2026-05-06 14:47 | 50.03834 | 8.51139 | 359 ft | 22 kts | 68° |
| 2026-05-06 14:47 | 50.03894 | 8.51373 | 359 ft | 24 kts | 71° |
| 2026-05-06 14:47 | 50.03945 | 8.51612 | 354 ft | 23 kts | 71° |
| 2026-05-06 14:48 | 50.04002 | 8.51843 | 357 ft | 23 kts | 70° |
| 2026-05-06 14:48 | 50.04058 | 8.52074 | 353 ft | 23 kts | 69° |
| 2026-05-06 14:48 | 50.04113 | 8.52308 | 360 ft | 23 kts | 69° |
| 2026-05-06 14:48 | 50.04169 | 8.52547 | 358 ft | 24 kts | 70° |
| 2026-05-06 14:49 | 50.04228 | 8.52791 | 355 ft | 25 kts | 69° |
| 2026-05-06 14:49 | 50.04289 | 8.53044 | 359 ft | 25 kts | 69° |
| 2026-05-06 14:49 | 50.04352 | 8.53307 | 355 ft | 26 kts | 70° |
| 2026-05-06 14:49 | 50.04401 | 8.53582 | 355 ft | 27 kts | 84° |
| 2026-05-06 14:50 | 50.04416 | 8.53876 | 351 ft | 28 kts | 85° |
| 2026-05-06 14:50 | 50.04434 | 8.54178 | 356 ft | 29 kts | 83° |
| 2026-05-06 14:50 | 50.04451 | 8.54489 | 352 ft | 29 kts | 96° |
| 2026-05-06 14:50 | 50.04342 | 8.54740 | 360 ft | 26 kts | 145° |
| 2026-05-06 14:51 | 50.04319 | 8.54760 | 358 ft | 0 kts | 151° |